This is the latest recevied weather packets stored in our database for station/object GBTWP-2. If no packets are shown the sender has not sent any weather packets the latest 1 day(s).
| Time | Temp. | Humidity | Pressure | Rain* | Wind** | Luminosity | Snow |
|---|---|---|---|---|---|---|---|
| 1836274676 | 14.44° C | 82% | 1024.7 hPa | 0 mm | 0 m/s | 0 W/m² | - |
| 1836274526 | 13.89° C | 83% | 1024.6 hPa | 0 mm | 0 m/s | 0 W/m² | - |
| 1836274376 | 14.44° C | 82% | 1024.9 hPa | 0 mm | 0 m/s | 0 W/m² | - |
| 1836274226 | 13.89° C | 82% | 1024.9 hPa | 0 mm | 0 m/s | 0 W/m² | - |
| 1836274076 | 14.44° C | 81% | 1024.6 hPa | 0 mm | 0 m/s | 0 W/m² | - |
| 1778047502 | 8.33° C | 63% | 1011.8 hPa | 0 mm | 0 m/s | 0 W/m² | - |
| 1778047202 | 8.33° C | 64% | 1011.4 hPa | 0 mm | 0 m/s | 0 W/m² | - |
| 1778046901 | 8.33° C | 63% | 1011.5 hPa | 0 mm | 0 m/s | 0 W/m² | - |
| 1778046302 | 8.33° C | 62% | 1011.5 hPa | 0 mm | 0 m/s | 0 W/m² | - |
| 1778046001 | 8.33° C | 61% | 1011.3 hPa | 0 mm | 0 m/s | 0 W/m² | - |
| 1778045702 | 8.33° C | 60% | 1011.1 hPa | 0 mm | 0 m/s | 0 W/m² | - |
| 1778045402 | 8.33° C | 60% | 1011.3 hPa | 0 mm | 0 m/s | 0 W/m² | - |
| 1778044502 | 8.33° C | 58% | 1011.4 hPa | 0 mm | 0 m/s | 0 W/m² | - |
| 1778044202 | 8.89° C | 58% | 1011.3 hPa | 0 mm | 0 m/s | 0 W/m² | - |
| 1778043901 | 8.89° C | 59% | 1011.6 hPa | 0 mm | 0 m/s | 0 W/m² | - |
| 1778043602 | 8.33° C | 58% | 1011.5 hPa | 0 mm | 0 m/s | 0 W/m² | - |
| 1778043301 | 8.33° C | 58% | 1011.6 hPa | 0 mm | 0 m/s | 0 W/m² | - |
| 1778041502 | 8.33° C | 60% | 1011.2 hPa | 0 mm | 0 m/s | 0 W/m² | - |
| 1778041201 | 8.33° C | 59% | 1011.3 hPa | 0 mm | 0 m/s | 0 W/m² | - |
| 1778040302 | 8.33° C | 59% | 1011.3 hPa | 0 mm | 0 m/s | 0 W/m² | - |
| 1778040002 | 8.33° C | 64% | 1011.4 hPa | 0 mm | 0 m/s | 0 W/m² | - |
| 1778039402 | 8.33° C | 61% | 1011.5 hPa | 0 mm | 0 m/s | 0 W/m² | - |
| 1778039102 | 8.33° C | 64% | 1011.5 hPa | 0 mm | 0 m/s | 0 W/m² | - |
| 1778038802 | 8.33° C | 62% | 1011.5 hPa | 0 mm | 0 m/s | 0 W/m² | - |
| 1778038502 | 7.78° C | 64% | 1011.3 hPa | 0 mm | 0 m/s | 0 W/m² | - |
* Rain latest hour (hover to see other rain measurements)
** Current wind speed in m/s (hover to see current wind gust speed)